Terminal Aerodrome Forecast
Issued by NWS

Home | Current Version | Previous Version | Text Only | Print | Product List | Glossary On
Versions: 1 2 3 4 5 6 7 8 9 10 11 12 13 14 15 16 17
000
FTUS43 KLSX 311332 AAA
TAFUIN
TAF AMD
KUIN 311332Z 3114/0112 25005KT P6SM BKN120
     FM311600 29009KT P6SM FEW040
     FM010100 VRB03KT P6SM SCT060=

USA.gov is the U.S. government's official web portal to all federal, state and local government web resources and services.